Time;durP1;ratioP1;P1;durP2;ratioP2;P2;SDS_P1;SDS_P2;PMS_P1;PMS_P2;Temp;Humidity;BMP_temperature;BMP_pressure;BME280_temperature;BME280_humidity;BME280_pressure;Samples;Min_cycle;Max_cycle;Signal;HPM_P1;HPM_P2
2021/09/28 00:00:23;;;;;;;10.15;5.30;;;;;;;;;;5030329;28;20568;-66
2021/09/28 00:02:51;;;;;;;10.43;5.35;;;;;;;;;;5027867;28;20052;-68
2021/09/28 00:05:20;;;;;;;10.32;5.50;;;;;;;;;;5012686;28;20056;-69
2021/09/28 00:07:50;;;;;;;8.77;5.07;;;;;;;;;;5010819;28;20104;-70
2021/09/28 00:10:18;;;;;;;9.25;5.18;;;;;;;;;;5012729;28;20046;-67
2021/09/28 00:12:46;;;;;;;10.50;5.50;;;;;;;;;;5030089;28;20644;-66
2021/09/28 00:15:16;;;;;;;8.68;4.80;;;;;;;;;;5023767;28;20057;-66
2021/09/28 00:17:45;;;;;;;11.80;5.85;;;;;;;;;;5029716;28;20111;-67
2021/09/28 00:20:14;;;;;;;9.90;5.35;;;;;;;;;;5023512;28;20049;-67
2021/09/28 00:22:42;;;;;;;8.10;5.05;;;;;;;;;;5020429;28;20053;-67
2021/09/28 00:25:12;;;;;;;9.38;4.97;;;;;;;;;;5028832;28;20470;-67
2021/09/28 00:27:40;;;;;;;8.70;4.82;;;;;;;;;;5029896;28;20103;-66
2021/09/28 00:30:09;;;;;;;9.18;4.57;;;;;;;;;;5022858;28;20181;-67
2021/09/28 00:32:38;;;;;;;10.57;5.40;;;;;;;;;;5028740;28;20490;-66
2021/09/28 00:35:06;;;;;;;11.25;5.38;;;;;;;;;;5027170;28;20045;-66
2021/09/28 00:37:35;;;;;;;9.50;5.43;;;;;;;;;;5029876;28;20081;-69
2021/09/28 00:40:04;;;;;;;8.38;4.95;;;;;;;;;;5046617;28;20114;-68
2021/09/28 00:42:36;;;;;;;10.98;5.00;;;;;;;;;;5052147;28;20040;-67
2021/09/28 00:45:06;;;;;;;9.63;5.03;;;;;;;;;;5047631;28;20045;-66
2021/09/28 00:47:34;;;;;;;11.10;4.90;;;;;;;;;;5050409;28;20148;-67
2021/09/28 00:50:04;;;;;;;9.65;4.80;;;;;;;;;;5031581;28;20087;-67
2021/09/28 00:52:32;;;;;;;8.63;5.00;;;;;;;;;;5044393;28;20592;-66
2021/09/28 00:55:00;;;;;;;14.45;5.53;;;;;;;;;;5051996;28;20132;-66
2021/09/28 00:57:29;;;;;;;10.80;5.30;;;;;;;;;;5048993;28;20092;-66
2021/09/28 00:59:59;;;;;;;10.70;5.63;;;;;;;;;;5047425;28;20124;-71
2021/09/28 01:02:27;;;;;;;9.85;5.30;;;;;;;;;;5053094;28;20148;-68
2021/09/28 01:04:56;;;;;;;10.77;4.88;;;;;;;;;;5051680;28;20044;-69
2021/09/28 01:07:30;;;;;;;8.10;5.03;;;;;;;;;;5052979;28;20107;-67
2021/09/28 01:09:58;;;;;;;8.82;5.15;;;;;;;;;;5052763;28;20139;-68
2021/09/28 01:12:27;;;;;;;8.35;5.05;;;;;;;;;;5039445;28;20145;-68
2021/09/28 01:14:55;;;;;;;9.18;4.88;;;;;;;;;;5052093;28;20132;-66
2021/09/28 01:17:25;;;;;;;9.23;4.95;;;;;;;;;;5052162;28;20455;-68
2021/09/28 01:19:53;;;;;;;7.72;5.03;;;;;;;;;;5038968;28;20351;-66
2021/09/28 01:22:23;;;;;;;9.45;4.97;;;;;;;;;;5048861;28;20132;-66
2021/09/28 01:24:51;;;;;;;8.80;4.68;;;;;;;;;;5051982;28;20057;-67
2021/09/28 01:27:19;;;;;;;8.63;4.90;;;;;;;;;;5052113;28;20127;-67
2021/09/28 01:29:47;;;;;;;9.02;5.03;;;;;;;;;;5050139;28;20559;-72
2021/09/28 01:32:16;;;;;;;8.68;4.53;;;;;;;;;;5044025;28;20136;-68
2021/09/28 01:34:44;;;;;;;8.13;4.65;;;;;;;;;;5039380;28;20049;-66
2021/09/28 01:37:12;;;;;;;9.02;5.00;;;;;;;;;;5052109;28;20041;-67
2021/09/28 01:39:42;;;;;;;9.10;4.05;;;;;;;;;;5046073;28;20564;-67
2021/09/28 01:42:10;;;;;;;7.00;4.10;;;;;;;;;;5036410;28;20174;-67
2021/09/28 01:44:38;;;;;;;9.88;5.22;;;;;;;;;;5051841;28;20068;-67
2021/09/28 01:47:07;;;;;;;9.70;4.88;;;;;;;;;;5040931;28;20132;-69
2021/09/28 01:49:35;;;;;;;10.25;5.15;;;;;;;;;;5036399;28;20511;-66
2021/09/28 01:52:04;;;;;;;9.85;4.57;;;;;;;;;;5047718;28;20124;-71
2021/09/28 01:54:32;;;;;;;8.38;4.63;;;;;;;;;;5047721;28;20063;-66
2021/09/28 01:57:03;;;;;;;9.32;4.97;;;;;;;;;;5052011;28;20045;-67
2021/09/28 01:59:32;;;;;;;9.60;4.65;;;;;;;;;;5045733;28;20176;-67
2021/09/28 02:02:00;;;;;;;8.75;4.78;;;;;;;;;;5051360;28;20084;-67
2021/09/28 02:04:28;;;;;;;10.57;4.57;;;;;;;;;;5051271;28;20111;-66
2021/09/28 02:06:57;;;;;;;8.50;4.45;;;;;;;;;;5050606;28;20080;-71
2021/09/28 02:09:26;;;;;;;6.88;4.07;;;;;;;;;;5051072;28;20049;-67
2021/09/28 02:11:54;;;;;;;10.10;4.90;;;;;;;;;;5051867;28;20135;-69
2021/09/28 02:14:27;;;;;;;7.15;4.20;;;;;;;;;;5050873;28;20464;-67
2021/09/28 02:16:56;;;;;;;9.75;4.35;;;;;;;;;;5052185;28;20089;-69
2021/09/28 02:19:24;;;;;;;8.88;4.78;;;;;;;;;;5051248;28;20141;-68
2021/09/28 02:21:52;;;;;;;9.48;4.75;;;;;;;;;;5050477;28;20493;-71
2021/09/28 02:24:21;;;;;;;7.72;5.05;;;;;;;;;;5051438;28;20084;-67
2021/09/28 02:26:49;;;;;;;9.57;4.72;;;;;;;;;;5055291;28;20128;-67
2021/09/28 02:29:17;;;;;;;8.20;4.60;;;;;;;;;;5049001;28;20053;-71
2021/09/28 02:31:47;;;;;;;8.82;4.40;;;;;;;;;;5055145;28;20366;-66
2021/09/28 02:34:15;;;;;;;7.63;4.95;;;;;;;;;;5035302;28;20046;-67
2021/09/28 02:36:43;;;;;;;9.55;4.78;;;;;;;;;;5057958;28;20548;-70
2021/09/28 02:39:12;;;;;;;8.25;4.47;;;;;;;;;;5057318;28;20049;-68
2021/09/28 02:41:40;;;;;;;7.30;4.78;;;;;;;;;;5053442;28;20055;-70
2021/09/28 02:44:08;;;;;;;11.35;4.95;;;;;;;;;;5056907;28;20136;-69
2021/09/28 02:46:37;;;;;;;5.78;3.95;;;;;;;;;;5050667;28;20139;-66
2021/09/28 02:49:06;;;;;;;7.93;4.68;;;;;;;;;;5037228;28;20041;-69
2021/09/28 02:51:35;;;;;;;12.27;6.22;;;;;;;;;;5066617;28;20087;-68
2021/09/28 02:54:03;;;;;;;11.77;5.57;;;;;;;;;;5053017;28;20051;-66
2021/09/28 02:56:31;;;;;;;9.35;5.03;;;;;;;;;;5051102;28;20055;-67
2021/09/28 02:58:59;;;;;;;10.23;5.30;;;;;;;;;;5043625;28;20456;-67
2021/09/28 03:01:28;;;;;;;9.65;4.93;;;;;;;;;;5049986;28;20140;-67
2021/09/28 03:03:56;;;;;;;9.63;4.75;;;;;;;;;;5046686;28;20052;-68
2021/09/28 03:06:26;;;;;;;9.70;5.40;;;;;;;;;;5045790;28;20132;-66
2021/09/28 03:08:54;;;;;;;9.60;4.82;;;;;;;;;;5050457;28;20476;-67
2021/09/28 03:11:24;;;;;;;8.98;5.57;;;;;;;;;;5050360;28;20477;-66
2021/09/28 03:13:53;;;;;;;9.90;5.43;;;;;;;;;;5049487;28;20079;-66
2021/09/28 03:16:21;;;;;;;9.85;5.20;;;;;;;;;;5048597;28;20049;-67
2021/09/28 03:18:50;;;;;;;9.77;5.40;;;;;;;;;;5032553;28;20053;-68
2021/09/28 03:21:18;;;;;;;10.23;5.35;;;;;;;;;;5039561;28;20135;-67
2021/09/28 03:23:47;;;;;;;9.15;5.68;;;;;;;;;;5039263;28;20045;-66
2021/09/28 03:26:36;;;;;;;8.42;4.85;;;;;;;;;;2351505;28;10024535;-69
2021/09/28 03:29:04;;;;;;;10.68;5.60;;;;;;;;;;3638945;28;10001644;-67
2021/09/28 03:31:32;;;;;;;8.02;4.90;;;;;;;;;;5050178;28;20564;-69
2021/09/28 03:34:00;;;;;;;10.15;5.00;;;;;;;;;;5049687;28;20045;-67
2021/09/28 03:36:29;;;;;;;11.05;6.20;;;;;;;;;;5050068;28;20076;-67
2021/09/28 03:38:58;;;;;;;9.82;4.80;;;;;;;;;;5055752;28;20427;-68
2021/09/28 03:41:27;;;;;;;10.13;5.45;;;;;;;;;;5062215;28;20480;-69
2021/09/28 03:43:55;;;;;;;14.95;5.70;;;;;;;;;;5045956;28;20481;-68
2021/09/28 03:46:23;;;;;;;7.97;4.63;;;;;;;;;;5042054;28;20124;-68
2021/09/28 03:48:51;;;;;;;10.13;5.22;;;;;;;;;;5049842;28;20536;-72
2021/09/28 03:51:20;;;;;;;10.25;5.28;;;;;;;;;;5049901;28;20048;-68
2021/09/28 03:53:51;;;;;;;11.55;5.20;;;;;;;;;;5038816;28;20131;-68
2021/09/28 03:56:21;;;;;;;10.25;4.93;;;;;;;;;;5040519;28;20137;-67
2021/09/28 03:58:49;;;;;;;8.93;4.68;;;;;;;;;;5046135;28;20044;-67
2021/09/28 04:01:18;;;;;;;9.73;5.30;;;;;;;;;;5049574;28;20608;-70
2021/09/28 04:03:47;;;;;;;9.15;4.93;;;;;;;;;;5037712;28;20323;-67
2021/09/28 04:06:15;;;;;;;10.07;4.82;;;;;;;;;;5045815;28;20041;-66
2021/09/28 04:08:43;;;;;;;10.52;5.10;;;;;;;;;;5050351;28;20045;-67
2021/09/28 04:11:11;;;;;;;13.75;6.00;;;;;;;;;;5048578;28;20399;-67
2021/09/28 04:13:43;;;;;;;12.52;5.55;;;;;;;;;;5049780;28;20059;-68
2021/09/28 04:16:11;;;;;;;13.23;6.70;;;;;;;;;;5052854;28;20132;-67
2021/09/28 04:18:40;;;;;;;11.27;5.63;;;;;;;;;;5047001;28;20370;-68
2021/09/28 04:21:09;;;;;;;16.23;6.45;;;;;;;;;;5051864;28;20083;-67
2021/09/28 04:23:37;;;;;;;13.82;6.60;;;;;;;;;;5051778;28;20053;-68
2021/09/28 04:26:06;;;;;;;14.65;6.93;;;;;;;;;;5047854;28;20106;-67
2021/09/28 04:28:35;;;;;;;16.80;7.13;;;;;;;;;;5044151;28;20124;-68
2021/09/28 04:31:05;;;;;;;15.05;6.38;;;;;;;;;;5054802;28;20140;-68
2021/09/28 04:33:33;;;;;;;13.60;6.68;;;;;;;;;;5053009;28;20107;-69
2021/09/28 04:36:01;;;;;;;15.85;8.07;;;;;;;;;;5048588;28;20127;-66
2021/09/28 04:38:30;;;;;;;18.08;8.45;;;;;;;;;;5053855;28;20439;-67
2021/09/28 04:40:58;;;;;;;18.00;7.97;;;;;;;;;;5049354;28;20053;-68
2021/09/28 04:43:27;;;;;;;19.23;7.45;;;;;;;;;;5051410;28;20055;-70
2021/09/28 04:45:55;;;;;;;18.17;8.45;;;;;;;;;;5052980;28;20049;-66
2021/09/28 04:48:25;;;;;;;16.75;7.85;;;;;;;;;;5053846;28;20456;-68
2021/09/28 04:50:53;;;;;;;16.73;8.23;;;;;;;;;;5053581;28;20084;-68
2021/09/28 04:53:21;;;;;;;16.17;8.50;;;;;;;;;;5044929;28;20091;-67
2021/09/28 04:55:54;;;;;;;14.15;7.47;;;;;;;;;;5052856;28;20131;-67
2021/09/28 04:58:23;;;;;;;15.75;7.65;;;;;;;;;;5051423;28;20598;-70
2021/09/28 05:00:51;;;;;;;17.17;9.00;;;;;;;;;;5035600;28;20049;-67
2021/09/28 05:03:20;;;;;;;15.57;7.78;;;;;;;;;;5042418;28;20435;-67
2021/09/28 05:05:49;;;;;;;18.88;8.32;;;;;;;;;;5048013;28;20475;-67
2021/09/28 05:08:18;;;;;;;15.55;7.40;;;;;;;;;;5052755;28;20155;-67
2021/09/28 05:10:48;;;;;;;16.98;8.38;;;;;;;;;;5040585;28;20144;-69
2021/09/28 05:13:16;;;;;;;16.08;7.55;;;;;;;;;;5036528;28;20072;-68
2021/09/28 05:15:45;;;;;;;14.75;7.05;;;;;;;;;;5043105;28;20482;-69
2021/09/28 05:18:13;;;;;;;14.90;7.03;;;;;;;;;;5041147;28;20048;-69
2021/09/28 05:20:42;;;;;;;14.18;7.10;;;;;;;;;;5046329;28;20159;-67
2021/09/28 05:23:11;;;;;;;14.38;6.75;;;;;;;;;;5046141;28;20069;-66
2021/09/28 05:25:40;;;;;;;14.95;6.95;;;;;;;;;;5047019;28;20110;-69
2021/09/28 05:28:08;;;;;;;13.90;6.78;;;;;;;;;;5047869;28;20312;-71
2021/09/28 05:30:36;;;;;;;15.60;7.63;;;;;;;;;;5045671;28;20463;-68
2021/09/28 05:33:05;;;;;;;14.75;7.05;;;;;;;;;;5043648;28;20122;-67
2021/09/28 05:35:34;;;;;;;15.93;7.00;;;;;;;;;;5047994;28;20081;-69
2021/09/28 05:38:02;;;;;;;13.95;7.03;;;;;;;;;;5045148;28;20048;-69
2021/09/28 05:40:32;;;;;;;12.68;6.50;;;;;;;;;;5037297;28;20172;-67
2021/09/28 05:43:00;;;;;;;14.77;6.45;;;;;;;;;;5046987;28;20045;-68
2021/09/28 05:45:29;;;;;;;13.60;5.60;;;;;;;;;;5048457;28;20260;-67
2021/09/28 05:47:57;;;;;;;13.20;6.47;;;;;;;;;;5046020;28;20051;-68
2021/09/28 05:50:26;;;;;;;15.88;7.65;;;;;;;;;;5035426;28;20049;-67
2021/09/28 05:52:56;;;;;;;14.18;6.55;;;;;;;;;;5040418;28;20398;-68
2021/09/28 05:55:25;;;;;;;16.58;7.70;;;;;;;;;;5042412;28;20541;-69
2021/09/28 05:57:54;;;;;;;12.50;6.38;;;;;;;;;;5043560;28;20049;-67
2021/09/28 06:00:23;;;;;;;14.38;6.97;;;;;;;;;;5040473;28;20136;-68
2021/09/28 06:02:51;;;;;;;12.38;6.80;;;;;;;;;;5044639;28;20421;-69
2021/09/28 06:05:20;;;;;;;12.95;6.75;;;;;;;;;;5051500;28;20091;-69
2021/09/28 06:07:49;;;;;;;12.93;6.28;;;;;;;;;;5047218;28;20052;-66
2021/09/28 06:10:17;;;;;;;12.55;6.25;;;;;;;;;;5050339;28;20081;-70
2021/09/28 06:12:46;;;;;;;11.73;6.10;;;;;;;;;;5047518;28;20056;-68
2021/09/28 06:15:15;;;;;;;11.55;5.75;;;;;;;;;;5045512;28;20119;-67
2021/09/28 06:17:44;;;;;;;10.18;4.90;;;;;;;;;;5040850;28;20041;-67
2021/09/28 06:20:12;;;;;;;10.35;5.43;;;;;;;;;;5047001;28;20126;-69
2021/09/28 06:22:41;;;;;;;8.38;4.40;;;;;;;;;;5044641;28;20049;-66
2021/09/28 06:25:09;;;;;;;9.57;3.42;;;;;;;;;;5041401;28;20049;-68
2021/09/28 06:27:38;;;;;;;5.65;3.05;;;;;;;;;;5047081;28;20071;-67
2021/09/28 06:30:07;;;;;;;6.45;2.72;;;;;;;;;;5041314;28;20049;-68
2021/09/28 06:32:36;;;;;;;4.72;2.17;;;;;;;;;;5047028;28;20136;-67
2021/09/28 06:35:05;;;;;;;3.90;1.83;;;;;;;;;;5044335;28;20469;-72
2021/09/28 06:37:33;;;;;;;2.88;1.75;;;;;;;;;;5038710;28;20104;-67
2021/09/28 06:40:02;;;;;;;2.17;1.30;;;;;;;;;;5029760;28;20130;-67
2021/09/28 06:42:30;;;;;;;4.53;1.42;;;;;;;;;;5035823;28;20042;-66
2021/09/28 06:44:58;;;;;;;2.10;1.23;;;;;;;;;;5039975;28;20524;-69
2021/09/28 06:47:27;;;;;;;2.13;1.42;;;;;;;;;;5045915;28;20874;-66
2021/09/28 06:49:56;;;;;;;2.08;1.25;;;;;;;;;;5039548;28;20077;-66
2021/09/28 06:52:25;;;;;;;3.40;1.30;;;;;;;;;;5042362;28;20080;-66
2021/09/28 06:54:53;;;;;;;2.83;1.63;;;;;;;;;;5046068;28;20493;-66
2021/09/28 06:57:22;;;;;;;5.75;1.45;;;;;;;;;;5050642;28;20352;-66
2021/09/28 06:59:50;;;;;;;3.53;1.30;;;;;;;;;;5047188;28;20080;-70
2021/09/28 07:02:18;;;;;;;2.28;1.17;;;;;;;;;;5043606;28;20049;-68
2021/09/28 07:04:47;;;;;;;2.55;1.40;;;;;;;;;;5041576;28;20050;-66
2021/09/28 07:07:17;;;;;;;2.70;0.85;;;;;;;;;;5043381;28;20055;-73
2021/09/28 07:09:45;;;;;;;1.05;0.70;;;;;;;;;;5045221;28;20053;-67
2021/09/28 07:12:14;;;;;;;1.23;0.77;;;;;;;;;;5044886;28;20428;-69
2021/09/28 07:14:42;;;;;;;1.70;0.70;;;;;;;;;;5040381;28;20102;-68
2021/09/28 07:17:11;;;;;;;1.75;0.65;;;;;;;;;;5046777;28;20068;-67
2021/09/28 07:19:39;;;;;;;1.25;0.85;;;;;;;;;;5041518;28;20052;-69
2021/09/28 07:22:07;;;;;;;0.98;0.80;;;;;;;;;;5050041;28;20094;-67
2021/09/28 07:24:39;;;;;;;1.00;0.80;;;;;;;;;;5049615;28;20139;-67
2021/09/28 07:27:08;;;;;;;1.65;0.90;;;;;;;;;;5049616;28;20049;-71
2021/09/28 07:29:36;;;;;;;1.00;0.70;;;;;;;;;;5045269;28;20464;-67
2021/09/28 07:32:05;;;;;;;0.82;0.60;;;;;;;;;;5033308;28;20059;-68
2021/09/28 07:34:33;;;;;;;0.77;0.63;;;;;;;;;;5050009;28;20083;-67
2021/09/28 07:37:02;;;;;;;1.42;0.80;;;;;;;;;;5037317;28;20049;-66
2021/09/28 07:39:48;;;;;;;2.88;0.95;;;;;;;;;;5032137;28;20127;-70
2021/09/28 07:42:16;;;;;;;3.40;0.70;;;;;;;;;;5048765;28;20041;-67
2021/09/28 07:44:46;;;;;;;0.40;0.40;;;;;;;;;;5049524;28;20091;-67
2021/09/28 07:47:15;;;;;;;1.55;0.60;;;;;;;;;;5043884;28;20420;-67
2021/09/28 07:49:44;;;;;;;1.13;0.80;;;;;;;;;;5030946;28;20045;-67
2021/09/28 07:52:13;;;;;;;1.00;0.43;;;;;;;;;;5044509;28;20048;-67
2021/09/28 07:54:42;;;;;;;1.88;0.80;;;;;;;;;;5049199;28;20477;-69
2021/09/28 07:57:12;;;;;;;0.80;0.60;;;;;;;;;;5046974;28;20144;-73
2021/09/28 07:59:41;;;;;;;2.17;0.63;;;;;;;;;;5040185;28;20396;-67
2021/09/28 08:02:10;;;;;;;0.68;0.50;;;;;;;;;;5030175;28;20045;-67
2021/09/28 08:04:40;;;;;;;0.60;0.50;;;;;;;;;;5030445;28;20131;-67
2021/09/28 08:07:12;;;;;;;0.43;0.43;;;;;;;;;;5045016;28;20049;-69
2021/09/28 08:09:41;;;;;;;1.67;0.50;;;;;;;;;;5046302;28;20401;-66
2021/09/28 08:12:10;;;;;;;0.98;0.45;;;;;;;;;;5039342;28;20049;-66
2021/09/28 08:14:40;;;;;;;0.47;0.40;;;;;;;;;;5030505;28;20132;-67
2021/09/28 08:17:08;;;;;;;1.63;0.90;;;;;;;;;;5029696;28;20080;-67
2021/09/28 08:19:39;;;;;;;2.67;0.57;;;;;;;;;;5049109;28;20103;-66
2021/09/28 08:22:09;;;;;;;1.83;0.52;;;;;;;;;;5043822;28;20046;-70
2021/09/28 08:24:42;;;;;;;0.40;0.40;;;;;;;;;;5042884;28;20084;-70
2021/09/28 08:29:58;;;;;;;0.65;0.50;;;;;;;;;;5042959;28;20079;-66
2021/09/28 08:32:26;;;;;;;2.78;0.70;;;;;;;;;;5042962;28;20072;-66
2021/09/28 08:34:55;;;;;;;0.70;0.60;;;;;;;;;;5052039;28;20076;-66
2021/09/28 08:37:24;;;;;;;1.23;0.52;;;;;;;;;;5042173;28;20112;-67
2021/09/28 08:39:53;;;;;;;1.40;0.80;;;;;;;;;;5045669;28;20056;-66
2021/09/28 08:42:21;;;;;;;0.57;0.52;;;;;;;;;;5048862;28;20041;-71
2021/09/28 08:44:49;;;;;;;0.60;0.50;;;;;;;;;;5046935;28;20164;-66
2021/09/28 08:47:34;;;;;;;1.77;0.63;;;;;;;;;;5045831;28;20045;-70
2021/09/28 08:50:02;;;;;;;0.73;0.55;;;;;;;;;;5044957;28;20040;-69
2021/09/28 08:52:31;;;;;;;2.20;0.70;;;;;;;;;;5048702;28;20140;-65
2021/09/28 08:55:11;;;;;;;1.10;0.60;;;;;;;;;;5047762;28;20060;-66
2021/09/28 08:57:41;;;;;;;0.50;0.50;;;;;;;;;;5045218;28;20138;-71
2021/09/28 09:00:24;;;;;;;0.75;0.52;;;;;;;;;;5067973;28;20488;-68
2021/09/28 09:02:55;;;;;;;0.93;0.50;;;;;;;;;;5038580;28;20119;-67
2021/09/28 09:05:26;;;;;;;1.73;0.80;;;;;;;;;;5037209;28;20053;-65
2021/09/28 09:07:58;;;;;;;0.70;0.70;;;;;;;;;;5052484;28;20106;-66
2021/09/28 09:10:28;;;;;;;0.90;0.50;;;;;;;;;;5040783;28;20080;-66
2021/09/28 09:12:57;;;;;;;1.63;0.70;;;;;;;;;;5055418;28;20052;-66
2021/09/28 09:15:27;;;;;;;0.63;0.60;;;;;;;;;;5039582;28;20053;-66
2021/09/28 09:17:58;;;;;;;1.10;0.80;;;;;;;;;;5044780;28;20076;-69
2021/09/28 09:20:28;;;;;;;1.00;0.90;;;;;;;;;;5048655;28;20050;-66
2021/09/28 09:22:57;;;;;;;1.13;0.60;;;;;;;;;;5038568;28;20131;-66
2021/09/28 09:25:27;;;;;;;1.10;0.68;;;;;;;;;;5048506;28;20057;-65
2021/09/28 09:27:56;;;;;;;1.30;0.60;;;;;;;;;;5053246;28;20457;-69
2021/09/28 09:30:32;;;;;;;0.70;0.60;;;;;;;;;;5044080;28;20053;-66
2021/09/28 09:33:02;;;;;;;1.17;0.88;;;;;;;;;;5034211;28;20060;-66
2021/09/28 09:35:31;;;;;;;0.88;0.77;;;;;;;;;;5049062;28;20037;-66
2021/09/28 09:38:07;;;;;;;0.88;0.75;;;;;;;;;;5039569;28;20136;-66
2021/09/28 09:40:37;;;;;;;0.70;0.60;;;;;;;;;;5043267;28;20057;-65
2021/09/28 09:43:07;;;;;;;0.98;0.68;;;;;;;;;;5046547;28;20482;-68
2021/09/28 09:45:35;;;;;;;1.15;0.73;;;;;;;;;;5045579;28;20080;-69
2021/09/28 09:48:22;;;;;;;2.30;1.00;;;;;;;;;;5040214;28;20080;-67
2021/09/28 09:50:55;;;;;;;1.10;0.80;;;;;;;;;;5048968;28;20049;-67
2021/09/28 09:53:23;;;;;;;1.10;0.98;;;;;;;;;;5051773;28;20052;-66
2021/09/28 09:55:52;;;;;;;0.98;0.63;;;;;;;;;;5047871;28;20084;-66
2021/09/28 09:58:21;;;;;;;2.35;1.00;;;;;;;;;;5050952;28;20053;-66
2021/09/28 10:00:52;;;;;;;3.50;0.90;;;;;;;;;;5038147;28;20052;-68
2021/09/28 10:03:22;;;;;;;0.98;0.80;;;;;;;;;;5050110;28;20053;-66
2021/09/28 10:05:51;;;;;;;1.05;0.60;;;;;;;;;;5040784;28;20049;-66
2021/09/28 10:08:19;;;;;;;0.77;0.70;;;;;;;;;;5047835;28;20141;-66
2021/09/28 10:10:55;;;;;;;1.92;1.00;;;;;;;;;;5045903;28;20089;-66
2021/09/28 10:13:39;;;;;;;1.85;1.35;;;;;;;;;;5049288;28;20053;-66
2021/09/28 10:16:26;;;;;;;1.90;1.30;;;;;;;;;;5041669;28;20061;-66
2021/09/28 10:18:56;;;;;;;2.78;1.40;;;;;;;;;;5051012;28;20539;-66
2021/09/28 10:21:37;;;;;;;4.53;1.83;;;;;;;;;;5033128;28;20501;-66
2021/09/28 10:24:20;;;;;;;4.22;2.10;;;;;;;;;;5041154;28;20498;-68
2021/09/28 10:27:09;;;;;;;3.35;1.48;;;;;;;;;;5047558;28;20080;-66
2021/09/28 10:29:41;;;;;;;2.70;1.75;;;;;;;;;;5043195;28;20554;-66
2021/09/28 10:32:24;;;;;;;4.03;2.20;;;;;;;;;;5037232;28;20802;-66
2021/09/28 10:35:12;;;;;;;2.90;1.70;;;;;;;;;;5039759;28;20456;-66
2021/09/28 10:37:52;;;;;;;3.90;2.33;;;;;;;;;;5043502;28;20538;-66
2021/09/28 10:40:39;;;;;;;3.40;2.28;;;;;;;;;;5042521;28;20064;-67
2021/09/28 10:43:08;;;;;;;3.85;1.83;;;;;;;;;;5042718;28;20060;-67
2021/09/28 10:45:46;;;;;;;3.50;1.70;;;;;;;;;;5042586;28;20068;-66
2021/09/28 10:48:29;;;;;;;3.33;1.80;;;;;;;;;;5035769;28;20129;-71
2021/09/28 10:51:07;;;;;;;3.83;2.15;;;;;;;;;;5042870;28;20135;-66
2021/09/28 10:53:36;;;;;;;3.40;1.67;;;;;;;;;;5046506;28;20092;-70
2021/09/28 10:56:06;;;;;;;3.95;2.10;;;;;;;;;;5042381;28;20095;-67
2021/09/28 10:58:51;;;;;;;2.65;1.75;;;;;;;;;;5046823;28;20053;-67
2021/09/28 11:01:20;;;;;;;4.73;2.03;;;;;;;;;;5040199;28;20041;-66
2021/09/28 11:03:55;;;;;;;3.25;1.65;;;;;;;;;;5030229;28;20297;-67
2021/09/28 11:06:42;;;;;;;2.95;1.80;;;;;;;;;;5036280;28;20071;-66
2021/09/28 11:09:13;;;;;;;5.30;1.80;;;;;;;;;;5043500;28;20041;-67
2021/09/28 11:11:41;;;;;;;2.10;1.50;;;;;;;;;;5040985;28;20103;-66
2021/09/28 11:14:11;;;;;;;2.45;1.60;;;;;;;;;;5045578;28;20084;-66
2021/09/28 11:16:40;;;;;;;2.55;1.60;;;;;;;;;;5031074;28;20120;-66
2021/09/28 11:19:10;;;;;;;4.20;1.42;;;;;;;;;;5039094;28;20106;-67
2021/09/28 11:21:41;;;;;;;2.05;1.35;;;;;;;;;;5031010;28;20124;-67
2021/09/28 11:24:10;;;;;;;2.05;1.45;;;;;;;;;;5038808;28;20558;-73
2021/09/28 11:26:42;;;;;;;3.22;1.15;;;;;;;;;;5045678;28;20076;-69
2021/09/28 11:29:11;;;;;;;1.33;1.20;;;;;;;;;;5045595;28;20087;-67
2021/09/28 11:31:41;;;;;;;2.25;1.35;;;;;;;;;;5044265;28;20509;-67
2021/09/28 11:34:15;;;;;;;1.45;1.23;;;;;;;;;;5036279;28;20492;-67
2021/09/28 11:36:44;;;;;;;1.60;1.20;;;;;;;;;;5029816;28;20080;-69
2021/09/28 11:39:15;;;;;;;1.50;1.08;;;;;;;;;;5037661;28;20159;-71
2021/09/28 11:41:46;;;;;;;4.55;1.48;;;;;;;;;;5048304;28;20578;-69
2021/09/28 11:44:15;;;;;;;1.77;1.42;;;;;;;;;;5045454;28;20118;-71
2021/09/28 11:46:44;;;;;;;2.50;1.52;;;;;;;;;;5043992;28;20040;-71
2021/09/28 11:49:14;;;;;;;2.15;1.40;;;;;;;;;;5045259;28;20041;-68
2021/09/28 11:51:44;;;;;;;1.83;1.20;;;;;;;;;;5043247;28;20377;-70
2021/09/28 11:54:14;;;;;;;1.65;1.10;;;;;;;;;;5048217;28;20183;-68
2021/09/28 11:56:44;;;;;;;2.17;0.90;;;;;;;;;;5039756;28;20041;-68
2021/09/28 11:59:15;;;;;;;1.80;1.20;;;;;;;;;;5038321;28;20049;-69
2021/09/28 12:01:44;;;;;;;2.10;1.25;;;;;;;;;;5043553;28;20049;-67
2021/09/28 12:04:16;;;;;;;1.98;1.38;;;;;;;;;;5044486;28;20052;-68
2021/09/28 12:07:00;;;;;;;2.08;0.98;;;;;;;;;;5035184;28;20045;-67
2021/09/28 12:09:48;;;;;;;2.05;1.27;;;;;;;;;;5039732;28;20075;-70
2021/09/28 12:12:18;;;;;;;2.50;1.35;;;;;;;;;;5043474;28;20067;-67
2021/09/28 12:14:48;;;;;;;2.85;1.50;;;;;;;;;;5036641;28;20421;-70
2021/09/28 12:17:17;;;;;;;2.22;1.27;;;;;;;;;;5041181;28;20060;-68
2021/09/28 12:19:47;;;;;;;1.20;1.08;;;;;;;;;;5035319;28;20049;-70
2021/09/28 12:22:15;;;;;;;3.13;1.30;;;;;;;;;;5044292;28;20401;-70
2021/09/28 12:24:45;;;;;;;2.20;1.27;;;;;;;;;;5040629;28;20060;-68
2021/09/28 12:27:13;;;;;;;2.58;1.30;;;;;;;;;;5041845;28;20057;-67
2021/09/28 12:29:43;;;;;;;1.92;1.20;;;;;;;;;;5042211;28;20519;-68
2021/09/28 12:32:23;;;;;;;2.90;2.05;;;;;;;;;;5036666;28;20053;-69
2021/09/28 12:34:54;;;;;;;4.22;1.90;;;;;;;;;;5042704;28;20088;-70
2021/09/28 12:37:23;;;;;;;3.03;1.95;;;;;;;;;;5045744;28;20049;-68
2021/09/28 12:40:02;;;;;;;5.50;1.90;;;;;;;;;;5040408;28;20059;-68
2021/09/28 12:42:31;;;;;;;3.30;2.20;;;;;;;;;;5025571;28;20049;-68
2021/09/28 12:45:00;;;;;;;5.63;1.95;;;;;;;;;;5014936;28;20111;-73
2021/09/28 12:47:35;;;;;;;4.93;1.80;;;;;;;;;;5026488;28;20061;-70
2021/09/28 12:50:34;;;;;;;5.05;2.13;;;;;;;;;;5028240;28;20075;-70
2021/09/28 12:53:10;;;;;;;5.50;1.80;;;;;;;;;;4941688;29;20505;-67
2021/09/28 12:55:39;;;;;;;2.25;1.48;;;;;;;;;;5011832;28;20053;-70
2021/09/28 12:58:08;;;;;;;3.85;2.15;;;;;;;;;;5027372;28;20099;-68
2021/09/28 13:00:37;;;;;;;4.18;1.80;;;;;;;;;;5015410;28;20065;-72
2021/09/28 13:03:15;;;;;;;4.10;1.85;;;;;;;;;;5040497;28;20052;-69
2021/09/28 13:05:48;;;;;;;3.00;1.83;;;;;;;;;;5019454;28;20049;-69
2021/09/28 13:08:20;;;;;;;4.07;1.95;;;;;;;;;;5027991;28;20123;-69
2021/09/28 13:10:49;;;;;;;2.97;1.85;;;;;;;;;;5018599;28;20522;-67
2021/09/28 13:13:18;;;;;;;3.00;1.73;;;;;;;;;;5015366;28;20173;-69
2021/09/28 13:15:47;;;;;;;2.65;1.85;;;;;;;;;;5025396;28;20053;-67
2021/09/28 13:18:18;;;;;;;2.88;2.03;;;;;;;;;;5016667;28;20045;-68
2021/09/28 13:20:47;;;;;;;3.17;2.20;;;;;;;;;;5021615;28;20894;-69
2021/09/28 13:23:15;;;;;;;4.40;1.88;;;;;;;;;;5023824;28;20071;-68
2021/09/28 13:25:44;;;;;;;5.38;2.00;;;;;;;;;;5012695;28;20046;-70
2021/09/28 13:28:13;;;;;;;6.60;2.33;;;;;;;;;;5021131;28;20409;-68
2021/09/28 13:30:45;;;;;;;5.32;2.38;;;;;;;;;;5022384;28;20116;-68
2021/09/28 13:33:14;;;;;;;5.20;2.42;;;;;;;;;;5011565;28;20133;-71
2021/09/28 13:35:44;;;;;;;3.80;1.98;;;;;;;;;;5017724;28;20053;-72
2021/09/28 13:38:12;;;;;;;9.10;2.10;;;;;;;;;;5023533;28;20472;-72
2021/09/28 13:40:41;;;;;;;3.03;1.75;;;;;;;;;;5040415;28;20140;-69
2021/09/28 13:43:09;;;;;;;6.28;2.38;;;;;;;;;;5035273;28;20505;-70
2021/09/28 13:45:40;;;;;;;5.25;3.00;;;;;;;;;;5030148;28;20138;-69
2021/09/28 13:48:09;;;;;;;3.38;2.05;;;;;;;;;;5048331;28;20083;-72
2021/09/28 13:50:38;;;;;;;3.38;1.95;;;;;;;;;;5044588;28;20102;-70
2021/09/28 13:53:08;;;;;;;3.35;2.30;;;;;;;;;;5033073;28;20060;-72
2021/09/28 13:55:36;;;;;;;5.10;2.15;;;;;;;;;;5041656;28;20106;-71
2021/09/28 13:58:05;;;;;;;2.33;1.77;;;;;;;;;;5043633;28;20072;-69
2021/09/28 14:00:33;;;;;;;3.55;2.22;;;;;;;;;;5030552;28;20082;-71
2021/09/28 14:03:02;;;;;;;4.32;2.03;;;;;;;;;;5043870;28;20045;-71
2021/09/28 14:05:31;;;;;;;3.05;1.88;;;;;;;;;;5043192;28;20057;-68
2021/09/28 14:07:59;;;;;;;3.15;1.80;;;;;;;;;;5047946;28;20049;-75
2021/09/28 14:10:29;;;;;;;3.55;2.17;;;;;;;;;;5046299;28;20151;-71
2021/09/28 14:12:58;;;;;;;3.35;1.70;;;;;;;;;;5040932;28;20124;-70
2021/09/28 14:15:28;;;;;;;3.63;1.90;;;;;;;;;;5047413;28;20052;-68
2021/09/28 14:17:56;;;;;;;3.33;2.10;;;;;;;;;;5025153;28;20057;-67
2021/09/28 14:20:25;;;;;;;2.80;1.92;;;;;;;;;;5045209;28;20049;-67
2021/09/28 14:22:53;;;;;;;5.43;1.80;;;;;;;;;;5051375;28;20451;-68
2021/09/28 14:25:22;;;;;;;3.15;1.73;;;;;;;;;;5045653;28;20049;-68
2021/09/28 14:27:52;;;;;;;2.75;1.48;;;;;;;;;;5044350;28;20049;-69
2021/09/28 14:30:21;;;;;;;3.38;2.08;;;;;;;;;;5042144;28;20060;-68
2021/09/28 14:32:50;;;;;;;2.88;1.67;;;;;;;;;;5043939;28;20511;-67
2021/09/28 14:35:19;;;;;;;4.03;2.10;;;;;;;;;;5040859;28;20124;-67
2021/09/28 14:38:05;;;;;;;3.50;1.65;;;;;;;;;;5043832;28;20120;-72
2021/09/28 14:40:34;;;;;;;4.13;1.70;;;;;;;;;;5046609;28;20137;-67
2021/09/28 14:43:05;;;;;;;4.32;2.00;;;;;;;;;;5047079;28;20045;-69
2021/09/28 14:45:34;;;;;;;5.13;1.92;;;;;;;;;;5035829;28;20053;-70
2021/09/28 14:48:04;;;;;;;2.40;1.70;;;;;;;;;;5031147;28;20077;-71
2021/09/28 14:50:33;;;;;;;6.53;2.13;;;;;;;;;;5046810;28;20049;-70
2021/09/28 14:53:02;;;;;;;3.47;1.70;;;;;;;;;;5038229;28;20057;-69
2021/09/28 14:55:31;;;;;;;4.35;1.88;;;;;;;;;;5040013;28;20049;-68
2021/09/28 14:58:00;;;;;;;4.72;2.20;;;;;;;;;;5046816;28;20044;-72
2021/09/28 15:00:30;;;;;;;3.33;2.00;;;;;;;;;;5043816;28;20041;-72